createdAt,value
2016-04-23T00:01:00.188Z,17.31
2016-04-23T00:02:00.269Z,17.38
2016-04-23T00:02:59.974Z,17.4
2016-04-23T00:03:59.977Z,17.43
2016-04-23T00:04:59.980Z,17.4
2016-04-23T00:06:00.218Z,17.36
2016-04-23T00:06:59.970Z,17.36
2016-04-23T00:07:59.973Z,17.35
2016-04-23T00:09:00.365Z,17.45
2016-04-23T00:10:00.369Z,17.43
2016-04-23T00:11:00.371Z,17.39
2016-04-23T00:12:00.155Z,17.38
2016-04-23T00:12:59.736Z,17.36
2016-04-23T00:14:00.145Z,17.39
2016-04-23T00:15:00.132Z,17.36
2016-04-23T00:16:00.150Z,17.31
2016-04-23T00:16:59.606Z,17.36
2016-04-23T00:18:00.125Z,17.36
2016-04-23T00:19:00.112Z,17.36
2016-04-23T00:19:59.723Z,17.35
2016-04-23T00:21:00.320Z,17.4
2016-04-23T00:22:00.120Z,17.42
2016-04-23T00:23:00.309Z,17.35
2016-04-23T00:23:59.906Z,17.38
2016-04-23T00:25:00.097Z,17.31
2016-04-23T00:26:00.099Z,17.38
2016-04-23T00:26:59.883Z,17.31
2016-04-23T00:28:00.105Z,17.32
2016-04-23T00:29:00.075Z,17.38
2016-04-23T00:30:00.094Z,17.32
2016-04-23T00:31:00.066Z,17.35
2016-04-23T00:31:59.866Z,17.31
2016-04-23T00:33:00.071Z,17.38
2016-04-23T00:34:00.058Z,17.32
2016-04-23T00:35:00.046Z,17.3
2016-04-23T00:35:59.844Z,17.32
2016-04-23T00:36:59.847Z,17.28
2016-04-23T00:37:59.835Z,17.28
2016-04-23T00:38:59.837Z,17.32
2016-04-23T00:40:00.027Z,17.25
2016-04-23T00:41:00.030Z,17.21
2016-04-23T00:42:00.220Z,17.28
2016-04-23T00:42:59.817Z,17.22
2016-04-23T00:43:59.616Z,17.25
2016-04-23T00:44:59.807Z,17.24
2016-04-23T00:45:59.996Z,17.18
2016-04-23T00:46:59.999Z,17.25
2016-04-23T00:48:00.190Z,17.25
2016-04-23T00:48:59.989Z,17.27
2016-04-23T00:49:59.773Z,17.27
2016-04-23T00:51:00.197Z,17.24
2016-04-23T00:52:00.201Z,17.3
2016-04-23T00:52:59.969Z,17.31
2016-04-23T00:53:59.768Z,17.24
2016-04-23T00:54:59.770Z,17.25
2016-04-23T00:55:59.961Z,17.3
2016-04-23T00:56:59.776Z,17.27
2016-04-23T00:57:59.730Z,17.3
2016-04-23T00:58:59.747Z,17.25
2016-04-23T00:59:59.735Z,17.17
2016-04-23T01:01:00.131Z,17.25
2016-04-23T01:01:59.930Z,17.27
2016-04-23T01:02:59.727Z,17.25
2016-04-23T01:03:59.919Z,17.2
2016-04-23T01:04:59.955Z,17.09
2016-04-23T01:05:59.720Z,17.24
2016-04-23T01:06:59.722Z,17.12
2016-04-23T01:07:59.693Z,17.12
2016-04-23T01:09:00.105Z,17.18
2016-04-23T01:09:59.887Z,17.15
2016-04-23T01:11:00.110Z,17.22
2016-04-23T01:11:59.892Z,17.25
2016-04-23T01:12:59.692Z,17.25
2016-04-23T01:13:59.710Z,17.09
2016-04-23T01:14:59.665Z,17.22
2016-04-23T01:15:59.887Z,17.13
2016-04-23T01:16:59.858Z,17.18
2016-04-23T01:18:00.080Z,17.12
2016-04-23T01:18:59.661Z,17.15
2016-04-23T01:19:59.648Z,17.13
2016-04-23T01:20:59.682Z,17.22
2016-04-23T01:21:59.841Z,17.15
2016-04-23T01:22:59.672Z,17.18
2016-04-23T01:23:59.830Z,17.12
2016-04-23T01:24:59.615Z,17.15
2016-04-23T01:26:00.023Z,17.17
2016-04-23T01:26:59.823Z,17.12
2016-04-23T01:27:59.606Z,17.15
2016-04-23T01:28:59.438Z,17.13
2016-04-23T01:29:59.816Z,17.13
2016-04-23T01:30:59.802Z,17.12
2016-04-23T01:31:59.789Z,17.21
2016-04-23T01:32:59.792Z,17.21
2016-04-23T01:33:59.780Z,17.13
2016-04-23T01:34:59.985Z,17.13
2016-04-23T01:35:59.597Z,17.12
2016-04-23T01:36:59.772Z,17.21
2016-04-23T01:37:59.977Z,17.17
2016-04-23T01:38:59.965Z,17.09
2016-04-23T01:39:59.561Z,17.12
2016-04-23T01:40:59.954Z,17.1
2016-04-23T01:41:59.973Z,17.13
2016-04-23T01:42:59.741Z,17.13
2016-04-23T01:43:59.962Z,17.13
2016-04-23T01:44:59.731Z,17.18
2016-04-23T01:45:59.952Z,17.15
2016-04-23T01:46:59.924Z,17.15
2016-04-23T01:47:59.926Z,17.15
2016-04-23T01:48:59.757Z,17.17
2016-04-23T01:49:59.916Z,17.05
2016-04-23T01:50:59.512Z,17.13
2016-04-23T01:51:59.500Z,17.15
2016-04-23T01:52:59.908Z,17.18
2016-04-23T01:53:59.287Z,17.13
2016-04-23T01:54:59.883Z,17.13
2016-04-23T01:55:59.885Z,17.13
2016-04-23T01:56:59.701Z,17.09
2016-04-23T01:57:59.672Z,17.09
2016-04-23T01:58:59.675Z,17.12
2016-04-23T01:59:59.255Z,17.07
2016-04-23T02:00:59.884Z,17.13
2016-04-23T02:01:59.667Z,17.1
2016-04-23T02:02:59.654Z,17.1
2016-04-23T02:03:59.453Z,17.02
2016-04-23T02:04:59.659Z,17.06
2016-04-23T02:05:59.647Z,17.07
2016-04-23T02:06:59.430Z,17.09
2016-04-23T02:07:59.433Z,17.06
2016-04-23T02:08:59.827Z,17.02
2016-04-23T02:09:59.627Z,17.12
2016-04-23T02:10:59.410Z,17.06
2016-04-23T02:11:59.615Z,17.06
2016-04-23T02:12:59.416Z,17.02
2016-04-23T02:13:59.402Z,17.09
2016-04-23T02:14:59.624Z,17.07
2016-04-23T02:15:59.392Z,17.06
2016-04-23T02:16:59.410Z,17.05
2016-04-23T02:17:59.382Z,17.07
2016-04-23T02:18:59.384Z,17.07
2016-04-23T02:19:59.387Z,17.07
2016-04-23T02:20:59.781Z,17.06
2016-04-23T02:21:59.049Z,17.06
2016-04-23T02:22:59.155Z,17.09
2016-04-23T02:23:59.767Z,17.06
2016-04-23T02:24:59.551Z,17.06
2016-04-23T02:25:59.553Z,17.07
2016-04-23T02:26:59.541Z,17.03
2016-04-23T02:27:59.340Z,17.05
2016-04-23T02:28:59.328Z,17.05
2016-04-23T02:29:59.346Z,17.05
2016-04-23T02:30:59.739Z,17.05
2016-04-23T02:31:59.320Z,17.03
2016-04-23T02:32:59.510Z,17.06
2016-04-23T02:33:59.513Z,17.07
2016-04-23T02:34:59.296Z,17.07
2016-04-23T02:35:59.112Z,17.06
2016-04-23T02:36:59.521Z,17.07
2016-04-23T02:37:59.305Z,17.06
2016-04-23T02:38:59.307Z,17.03
2016-04-23T02:39:59.685Z,17.02
2016-04-23T02:40:59.079Z,17.03
2016-04-23T02:41:59.268Z,16.99
2016-04-23T02:42:59.474Z,17.02
2016-04-23T02:43:59.259Z,17.09
2016-04-23T02:44:59.465Z,17.05
2016-04-23T02:45:59.670Z,17.06
2016-04-23T02:46:59.454Z,17.05
2016-04-23T02:47:59.098Z,16.99
2016-04-23T02:48:59.647Z,16.99
2016-04-23T02:49:59.228Z,17
2016-04-23T02:50:59.433Z,16.97
2016-04-23T02:51:59.218Z,16.99
2016-04-23T02:52:59.220Z,16.94
2016-04-23T02:53:59.222Z,17.03
2016-04-23T02:54:59.039Z,17
2016-04-23T02:55:59.213Z,17
2016-04-23T02:56:59.403Z,17
2016-04-23T02:57:59.405Z,17
2016-04-23T02:58:59.612Z,16.99
2016-04-23T02:59:59.380Z,16.97
2016-04-23T03:00:59.226Z,16.99
2016-04-23T03:01:59.182Z,16.92
2016-04-23T03:02:59.575Z,16.99
2016-04-23T03:03:59.391Z,16.99
2016-04-23T03:04:59.565Z,16.97
2016-04-23T03:05:59.161Z,16.97
2016-04-23T03:06:59.368Z,16.91
2016-04-23T03:07:59.151Z,16.94
2016-04-23T03:08:58.935Z,16.92
2016-04-23T03:09:59.532Z,16.94
2016-04-23T03:10:59.129Z,16.95
2016-04-23T03:11:59.131Z,16.92
2016-04-23T03:12:58.914Z,16.97
2016-04-23T03:13:59.527Z,16.97
2016-04-23T03:14:59.326Z,16.97
2016-04-23T03:15:58.906Z,16.92
2016-04-23T03:16:59.504Z,16.94
2016-04-23T03:17:59.506Z,16.95
2016-04-23T03:18:59.103Z,16.94
2016-04-23T03:19:59.106Z,16.91
2016-04-23T03:20:59.296Z,16.92
2016-04-23T03:21:58.876Z,16.9
2016-04-23T03:22:59.067Z,16.94
2016-04-23T03:23:59.272Z,16.94
2016-04-23T03:24:59.072Z,16.97
2016-04-23T03:25:59.261Z,16.94
2016-04-23T03:26:59.264Z,17.03
2016-04-23T03:27:59.253Z,16.85
2016-04-23T03:28:59.255Z,16.95
2016-04-23T03:29:58.836Z,16.94
2016-04-23T03:30:59.244Z,16.95
2016-04-23T03:31:59.450Z,16.99
2016-04-23T03:32:59.031Z,16.9
2016-04-23T03:33:59.033Z,16.9
2016-04-23T03:34:59.224Z,16.95
2016-04-23T03:35:59.008Z,17.02
2016-04-23T03:36:59.011Z,16.88
2016-04-23T03:37:59.013Z,16.92
2016-04-23T03:38:59.204Z,16.99
2016-04-23T03:39:59.410Z,16.9
2016-04-23T03:40:59.193Z,16.94
2016-04-23T03:41:59.398Z,16.91
2016-04-23T03:42:58.995Z,16.91
2016-04-23T03:43:58.983Z,16.92
2016-04-23T03:44:58.798Z,16.91
2016-04-23T03:45:58.769Z,16.87
2016-04-23T03:46:58.975Z,16.82
2016-04-23T03:47:58.962Z,16.92
2016-04-23T03:48:59.168Z,16.94
2016-04-23T03:49:59.154Z,16.94
2016-04-23T03:50:59.345Z,16.92
2016-04-23T03:51:59.145Z,16.88
2016-04-23T03:52:59.148Z,16.91
2016-04-23T03:53:59.134Z,16.88
2016-04-23T03:54:58.918Z,16.87
2016-04-23T03:55:58.940Z,16.88
2016-04-23T03:56:59.115Z,16.99
2016-04-23T03:57:59.321Z,16.97
2016-04-23T03:58:58.901Z,16.82
2016-04-23T03:59:59.108Z,16.91
2016-04-23T04:00:59.094Z,16.92
2016-04-23T04:01:59.301Z,16.88
2016-04-23T04:02:59.319Z,16.9
2016-04-23T04:03:59.290Z,16.92
2016-04-23T04:04:58.886Z,16.97
2016-04-23T04:05:59.076Z,16.92
2016-04-23T04:06:59.064Z,16.9
2016-04-23T04:07:58.864Z,16.94
2016-04-23T04:08:58.867Z,16.9
2016-04-23T04:09:59.056Z,16.91
2016-04-23T04:10:59.058Z,16.91
2016-04-23T04:11:59.046Z,16.87
2016-04-23T04:12:58.830Z,16.88
2016-04-23T04:13:59.239Z,16.94
2016-04-23T04:14:59.242Z,16.85
2016-04-23T04:15:58.822Z,16.92
2016-04-23T04:16:59.044Z,16.88
2016-04-23T04:17:59.234Z,16.97
2016-04-23T04:18:59.221Z,16.9
2016-04-23T04:19:59.208Z,16.88
2016-04-23T04:20:59.007Z,16.84
2016-04-23T04:21:59.197Z,16.84
2016-04-23T04:22:58.810Z,16.84
2016-04-23T04:23:58.578Z,16.84
2016-04-23T04:24:58.988Z,16.9
2016-04-23T04:25:58.583Z,16.84
2016-04-23T04:26:58.774Z,16.87
2016-04-23T04:27:58.979Z,16.87
2016-04-23T04:28:59.185Z,16.84
2016-04-23T04:29:58.751Z,16.85
2016-04-23T04:30:58.769Z,16.84
2016-04-23T04:31:58.741Z,16.77
2016-04-23T04:32:58.977Z,16.85
2016-04-23T04:33:58.746Z,16.82
2016-04-23T04:34:58.748Z,16.82
2016-04-23T04:35:58.735Z,16.84
2016-04-23T04:36:59.144Z,16.8
2016-04-23T04:37:58.928Z,16.77
2016-04-23T04:38:58.931Z,16.77
2016-04-23T04:39:59.121Z,16.74
2016-04-23T04:40:58.703Z,16.81
2016-04-23T04:41:58.908Z,16.81
2016-04-23T04:42:58.879Z,16.8
2016-04-23T04:43:58.506Z,16.77
2016-04-23T04:44:58.884Z,16.74
2016-04-23T04:45:58.684Z,16.76
2016-04-23T04:46:58.672Z,16.77
2016-04-23T04:47:59.081Z,16.81
2016-04-23T04:48:58.661Z,16.82
2016-04-23T04:49:58.867Z,16.82
2016-04-23T04:50:59.057Z,16.8
2016-04-23T04:51:58.872Z,16.82
2016-04-23T04:52:58.452Z,16.76
2016-04-23T04:53:58.643Z,16.77
2016-04-23T04:54:58.849Z,16.77
2016-04-23T04:55:59.039Z,16.81
2016-04-23T04:56:58.855Z,16.8
2016-04-23T04:57:58.623Z,16.81
2016-04-23T04:58:59.032Z,16.76
2016-04-23T04:59:58.815Z,16.8
2016-04-23T05:00:59.006Z,16.81
2016-04-23T05:01:58.805Z,16.76
2016-04-23T05:02:58.465Z,16.74
2016-04-23T05:03:58.999Z,16.81
2016-04-23T05:04:58.579Z,16.69
2016-04-23T05:05:58.582Z,16.69
2016-04-23T05:06:58.975Z,16.7
2016-04-23T05:07:58.588Z,16.76
2016-04-23T05:08:58.964Z,16.73
2016-04-23T05:09:58.764Z,16.73
2016-04-23T05:10:58.767Z,16.73
2016-04-23T05:11:58.754Z,16.66
2016-04-23T05:12:58.741Z,16.69
2016-04-23T05:13:58.759Z,16.73
2016-04-23T05:14:58.544Z,16.7
2016-04-23T05:15:58.734Z,16.72
2016-04-23T05:16:58.736Z,16.67
2016-04-23T05:17:58.723Z,16.67
2016-04-23T05:18:58.945Z,16.67
2016-04-23T05:19:58.511Z,16.72
2016-04-23T05:20:58.935Z,16.73
2016-04-23T05:21:58.703Z,16.69
2016-04-23T05:22:58.502Z,16.67
2016-04-23T05:23:58.896Z,16.72
2016-04-23T05:24:58.695Z,16.67
2016-04-23T05:25:58.698Z,16.72
2016-04-23T05:26:58.669Z,16.67
2016-04-23T05:27:58.469Z,16.67
2016-04-23T05:28:58.691Z,16.7
2016-04-23T05:29:58.677Z,16.7
2016-04-23T05:30:58.665Z,16.67
2016-04-23T05:31:58.870Z,16.73
2016-04-23T05:32:58.670Z,16.67
2016-04-23T05:33:58.438Z,16.74
2016-04-23T05:34:58.441Z,16.67
2016-04-23T05:35:58.443Z,16.67
2016-04-23T05:36:58.634Z,16.69
2016-04-23T05:37:58.840Z,16.69
2016-04-23T05:38:58.639Z,16.67
2016-04-23T05:39:58.626Z,16.77
2016-04-23T05:40:58.614Z,16.74
2016-04-23T05:41:58.617Z,16.77
2016-04-23T05:42:58.400Z,16.67
2016-04-23T05:43:58.809Z,16.7
2016-04-23T05:44:58.593Z,16.73
2016-04-23T05:45:58.798Z,16.73
2016-04-23T05:46:58.380Z,16.7
2016-04-23T05:47:58.382Z,16.67
2016-04-23T05:48:58.573Z,16.7
2016-04-23T05:49:58.356Z,16.7
2016-04-23T05:50:58.781Z,16.67
2016-04-23T05:51:58.565Z,16.66
2016-04-23T05:52:58.364Z,16.72
2016-04-23T05:53:58.774Z,16.67
2016-04-23T05:54:58.541Z,16.67
2016-04-23T05:55:58.544Z,16.72
2016-04-23T05:56:58.750Z,16.69
2016-04-23T05:57:58.534Z,16.7
2016-04-23T05:58:58.521Z,16.73
2016-04-23T05:59:58.321Z,16.67
2016-04-23T06:00:58.511Z,16.65
2016-04-23T06:01:58.513Z,16.72
2016-04-23T06:02:58.516Z,16.65
2016-04-23T06:03:58.706Z,16.73
2016-04-23T06:04:58.288Z,16.67
2016-04-23T06:05:58.493Z,16.72
2016-04-23T06:06:58.277Z,16.65
2016-04-23T06:07:58.280Z,16.72
2016-04-23T06:08:58.485Z,16.73
2016-04-23T06:09:58.270Z,16.7
2016-04-23T06:10:58.678Z,16.73
2016-04-23T06:11:58.259Z,16.7
2016-04-23T06:12:58.246Z,16.73
2016-04-23T06:13:58.655Z,16.69
2016-04-23T06:14:58.658Z,16.66
2016-04-23T06:15:58.442Z,16.73
2016-04-23T06:16:58.648Z,16.69
2016-04-23T06:17:58.041Z,16.69
2016-04-23T06:18:58.419Z,16.7
2016-04-23T06:19:58.218Z,16.72
2016-04-23T06:20:58.206Z,16.65
2016-04-23T06:21:58.428Z,16.7
2016-04-23T06:22:58.617Z,16.7
2016-04-23T06:23:58.401Z,16.69
2016-04-23T06:24:58.200Z,16.69
2016-04-23T06:25:58.594Z,16.81
2016-04-23T06:26:58.393Z,16.7
2016-04-23T06:27:58.177Z,16.77
2016-04-23T06:28:58.180Z,16.72
2016-04-23T06:29:58.589Z,16.7
2016-04-23T06:30:58.154Z,16.69
2016-04-23T06:31:58.563Z,16.72
2016-04-23T06:32:58.363Z,16.8
2016-04-23T06:33:58.552Z,16.7
2016-04-23T06:34:58.337Z,16.72
2016-04-23T06:35:58.339Z,16.73
2016-04-23T06:36:58.140Z,16.74
2016-04-23T06:37:58.127Z,16.82
2016-04-23T06:38:58.535Z,16.72
2016-04-23T06:39:58.116Z,16.76
2016-04-23T06:40:58.118Z,16.76
2016-04-23T06:41:58.309Z,16.7
2016-04-23T06:42:58.514Z,16.77
2016-04-23T06:43:58.111Z,16.72
2016-04-23T06:44:58.504Z,16.73
2016-04-23T06:45:58.289Z,16.77
2016-04-23T06:46:58.103Z,16.81
2016-04-23T06:47:58.278Z,16.69
2016-04-23T06:48:57.875Z,16.72
2016-04-23T06:49:58.267Z,16.76
2016-04-23T06:50:58.286Z,16.7
2016-04-23T06:51:57.850Z,16.7
2016-04-23T06:52:58.261Z,16.73
2016-04-23T06:53:58.061Z,16.8
2016-04-23T06:54:58.250Z,16.8
2016-04-23T06:55:57.831Z,16.82
2016-04-23T06:56:57.833Z,16.77
2016-04-23T06:57:58.039Z,16.76
2016-04-23T06:58:58.230Z,16.8
2016-04-23T06:59:58.247Z,16.8
2016-04-23T07:00:58.219Z,16.73
2016-04-23T07:01:58.425Z,16.8
2016-04-23T07:02:58.022Z,16.82
2016-04-23T07:03:58.212Z,16.87
2016-04-23T07:04:57.996Z,16.84
2016-04-23T07:05:58.404Z,16.84
2016-04-23T07:06:58.204Z,16.84
2016-04-23T07:07:58.393Z,16.88
2016-04-23T07:08:58.179Z,16.81
2016-04-23T07:09:57.979Z,16.87
2016-04-23T07:10:58.168Z,16.88
2016-04-23T07:11:58.171Z,16.85
2016-04-23T07:12:58.173Z,16.87
2016-04-23T07:13:57.957Z,16.85
2016-04-23T07:14:58.367Z,16.91
2016-04-23T07:15:58.150Z,16.88
2016-04-23T07:16:58.137Z,16.92
2016-04-23T07:17:58.343Z,16.9
2016-04-23T07:18:58.128Z,16.88
2016-04-23T07:19:57.926Z,16.91
2016-04-23T07:20:58.804Z,16.88
2016-04-23T07:21:57.775Z,16.95
2016-04-23T07:22:58.309Z,16.94
2016-04-23T07:23:58.109Z,16.88
2016-04-23T07:24:58.112Z,16.87
2016-04-23T07:26:00.583Z,16.91
2016-04-23T07:26:58.102Z,16.85
2016-04-23T07:27:58.291Z,16.92
2016-04-23T07:28:57.888Z,16.92
2016-04-23T07:29:57.891Z,16.82
2016-04-23T07:31:02.691Z,16.97
2016-04-23T07:31:57.865Z,16.94
2016-04-23T07:32:58.290Z,16.94
2016-04-23T07:33:57.855Z,16.92
2016-04-23T07:34:58.263Z,16.92
2016-04-23T07:35:58.251Z,16.9
2016-04-23T07:36:57.957Z,16.92
2016-04-23T07:37:58.054Z,16.94
2016-04-23T07:38:58.040Z,17
2016-04-23T07:39:58.043Z,16.99
2016-04-23T07:41:00.779Z,16.95
2016-04-23T07:41:58.049Z,16.94
2016-04-23T07:42:58.096Z,16.97
2016-04-23T07:43:58.143Z,16.95
2016-04-23T07:44:57.987Z,16.99
2016-04-23T07:46:00.329Z,17
2016-04-23T07:46:58.026Z,17.03
2016-04-23T07:47:58.233Z,16.99
2016-04-23T07:48:58.455Z,16.95
2016-04-23T07:49:58.068Z,17.02
2016-04-23T07:51:00.024Z,17.05
2016-04-23T07:51:58.270Z,16.97
2016-04-23T07:52:58.278Z,17.03
2016-04-23T07:53:58.287Z,16.95
2016-04-23T07:54:58.295Z,17.03
2016-04-23T07:55:58.084Z,16.97
2016-04-23T07:56:58.496Z,16.95
2016-04-23T07:57:58.282Z,17.05
2016-04-23T07:58:58.069Z,17.06
2016-04-23T07:59:58.073Z,17.06
2016-04-23T08:00:59.156Z,17.05
2016-04-23T08:01:58.268Z,17
2016-04-23T08:02:58.474Z,17.03
2016-04-23T08:03:58.276Z,17.05
2016-04-23T08:04:58.060Z,17.03
2016-04-23T08:05:59.955Z,17.06
2016-04-23T08:06:58.457Z,17
2016-04-23T08:07:58.258Z,17.06
2016-04-23T08:08:58.042Z,17.06
2016-04-23T08:09:58.232Z,17.07
2016-04-23T08:10:58.251Z,17.07
2016-04-23T08:11:58.238Z,17.09
2016-04-23T08:12:58.428Z,17.12
2016-04-23T08:13:58.228Z,17.09
2016-04-23T08:14:58.215Z,17.09
2016-04-23T08:15:58.405Z,17.07
2016-04-23T08:16:58.205Z,17.1
2016-04-23T08:17:58.207Z,17.13
2016-04-23T08:18:57.789Z,17.13
2016-04-23T08:19:58.213Z,17.09
2016-04-23T08:20:57.980Z,17.07
2016-04-23T08:21:57.983Z,17.02
2016-04-23T08:22:58.002Z,17.09
2016-04-23T08:23:58.380Z,17.07
2016-04-23T08:24:57.960Z,17.15
2016-04-23T08:25:57.964Z,17.2
2016-04-23T08:26:58.013Z,17.07
2016-04-23T08:27:58.141Z,17.12
2016-04-23T08:28:57.955Z,17.03
2016-04-23T08:29:58.354Z,17.15
2016-04-23T08:30:59.106Z,17.09
2016-04-23T08:31:58.141Z,17.09
2016-04-23T08:32:58.128Z,17.09
2016-04-23T08:33:58.006Z,17.15
2016-04-23T08:34:57.726Z,17.12
2016-04-23T08:36:00.386Z,17.1
2016-04-23T08:36:58.310Z,17.12
2016-04-23T08:37:58.141Z,17.12
2016-04-23T08:38:58.316Z,17.13
2016-04-23T08:39:57.693Z,17.15
2016-04-23T08:41:00.367Z,17.18
2016-04-23T08:41:57.887Z,17.12
2016-04-23T08:42:57.873Z,17.18
2016-04-23T08:43:57.875Z,17.12
2016-04-23T08:44:57.864Z,17.1
2016-04-23T08:46:01.381Z,17.15
2016-04-23T08:46:58.055Z,17.13
2016-04-23T08:47:58.058Z,17.13
2016-04-23T08:48:57.875Z,17.21
2016-04-23T08:49:58.095Z,17.21
2016-04-23T08:50:59.676Z,17.21
2016-04-23T08:51:58.039Z,17.22
2016-04-23T08:52:58.025Z,17.13
2016-04-23T08:53:57.824Z,17.3
2016-04-23T08:54:58.030Z,17.21
2016-04-23T08:56:01.502Z,17.27
2016-04-23T08:56:57.818Z,17.25
2016-04-23T08:57:58.211Z,17.28
2016-04-23T08:58:58.010Z,17.25
2016-04-23T08:59:57.997Z,17.3
2016-04-23T09:00:59.531Z,17.22
2016-04-23T09:01:58.002Z,17.21
2016-04-23T09:02:57.990Z,17.22
2016-04-23T09:03:57.445Z,17.24
2016-04-23T09:04:57.979Z,17.21
2016-04-23T09:05:58.670Z,17.25
2016-04-23T09:06:58.188Z,17.27
2016-04-23T09:07:57.565Z,17.21
2016-04-23T09:08:57.975Z,17.24
2016-04-23T09:09:57.961Z,17.17
2016-04-23T09:11:00.870Z,17.24
2016-04-23T09:12:18.032Z,17.15
2016-04-23T09:12:57.532Z,17.27
2016-04-23T09:13:57.738Z,17.18
2016-04-23T09:14:57.928Z,17.15
2016-04-23T09:15:57.931Z,17.17
2016-04-23T09:16:58.136Z,17.15
2016-04-23T09:17:57.733Z,17.24
2016-04-23T09:18:57.736Z,17.12
2016-04-23T09:19:57.708Z,17.25
2016-04-23T09:20:57.913Z,17.21
2016-04-23T09:21:57.697Z,17.28
2016-04-23T09:22:57.699Z,17.27
2016-04-23T09:23:57.890Z,17.2
2016-04-23T09:24:57.893Z,17.22
2016-04-23T09:26:00.599Z,17.28
2016-04-23T09:26:57.539Z,17.24
2016-04-23T09:27:57.869Z,17.25
2016-04-23T09:28:57.590Z,17.18
2016-04-23T09:29:57.657Z,17.27
2016-04-23T09:31:00.971Z,17.24
2016-04-23T09:31:57.568Z,17.24
2016-04-23T09:32:59.930Z,17.25
2016-04-23T09:33:58.245Z,17.25
2016-04-23T09:34:57.373Z,17.24
2016-04-23T09:36:01.798Z,17.28
2016-04-23T09:36:58.050Z,17.21
2016-04-23T09:37:57.615Z,17.21
2016-04-23T09:38:57.664Z,17.31
2016-04-23T09:39:57.511Z,17.24
2016-04-23T09:41:00.061Z,17.27
2016-04-23T09:41:57.673Z,17.27
2016-04-23T09:42:58.019Z,17.32
2016-04-23T09:43:57.834Z,17.3
2016-04-23T09:44:57.822Z,17.31
2016-04-23T09:45:58.511Z,17.27
2016-04-23T09:46:57.592Z,17.28
2016-04-23T09:47:57.580Z,17.3
2016-04-23T09:48:58.004Z,17.25
2016-04-23T09:49:57.773Z,17.25
2016-04-23T09:50:58.416Z,17.22
2016-04-23T09:51:57.966Z,17.21
2016-04-23T09:52:57.358Z,17.3
2016-04-23T09:53:57.971Z,17.25
2016-04-23T09:54:57.552Z,17.22
2016-04-23T09:55:57.976Z,17.25
2016-04-23T09:56:57.947Z,17.28
2016-04-23T09:57:57.763Z,17.28
2016-04-23T09:58:57.796Z,17.28
2016-04-23T09:59:57.377Z,17.25
2016-04-23T10:00:58.083Z,17.28
2016-04-23T10:01:57.508Z,17.2
2016-04-23T10:02:57.714Z,17.18
2016-04-23T10:03:57.701Z,17.24
2016-04-23T10:04:57.703Z,17.24
2016-04-23T10:05:58.346Z,17.3
2016-04-23T10:07:06.927Z,17.3
2016-04-23T10:07:57.743Z,17.2
2016-04-23T10:08:57.698Z,17.18
2016-04-23T10:09:57.482Z,17.22
2016-04-23T10:10:57.892Z,17.18
2016-04-23T10:11:57.722Z,17.25
2016-04-23T10:12:57.600Z,17.24
2016-04-23T10:13:57.868Z,17.25
2016-04-23T10:14:57.870Z,17.25
2016-04-23T10:15:58.155Z,17.22
2016-04-23T10:16:57.439Z,17.22
2016-04-23T10:17:57.644Z,17.31
2016-04-23T10:18:57.850Z,17.22
2016-04-23T10:19:57.494Z,17.28
2016-04-23T10:20:57.637Z,17.31
2016-04-23T10:21:57.280Z,17.36
2016-04-23T10:22:57.219Z,17.31
2016-04-23T10:23:57.633Z,17.35
2016-04-23T10:24:57.808Z,17.35
2016-04-23T10:25:57.622Z,17.31
2016-04-23T10:26:57.609Z,17.35
2016-04-23T10:27:57.190Z,17.38
2016-04-23T10:28:57.396Z,17.36
2016-04-23T10:29:57.383Z,17.36
2016-04-23T10:30:57.385Z,17.31
2016-04-23T10:31:57.372Z,17.38
2016-04-23T10:32:57.172Z,17.49
2016-04-23T10:33:58.019Z,17.38
2016-04-23T10:34:57.630Z,17.46
2016-04-23T10:35:57.758Z,17.43
2016-04-23T10:36:57.557Z,17.46
2016-04-23T10:37:57.560Z,17.43
2016-04-23T10:38:57.563Z,17.43
2016-04-23T10:39:57.362Z,17.43
2016-04-23T10:40:57.756Z,17.38
2016-04-23T10:41:57.337Z,17.43
2016-04-23T10:42:57.340Z,17.45
2016-04-23T10:43:57.123Z,17.4
2016-04-23T10:44:57.314Z,17.39
2016-04-23T10:45:57.739Z,17.4
2016-04-23T10:46:57.507Z,17.38
2016-04-23T10:47:57.509Z,17.47
2016-04-23T10:48:57.918Z,17.42
2016-04-23T10:49:59.000Z,17.47
2016-04-23T10:50:57.503Z,17.4
2016-04-23T10:51:57.505Z,17.38
2016-04-23T10:52:57.492Z,17.4
2016-04-23T10:53:57.681Z,17.36
2016-04-23T10:54:57.482Z,17.43
2016-04-23T10:55:57.469Z,17.45
2016-04-23T10:56:57.471Z,17.45
2016-04-23T10:57:57.052Z,17.4
2016-04-23T10:58:57.680Z,17.4
2016-04-23T10:59:57.667Z,17.45
2016-04-23T11:00:57.450Z,17.43
2016-04-23T11:01:57.266Z,17.46
2016-04-23T11:02:57.252Z,17.5
2016-04-23T11:03:57.458Z,17.46
2016-04-23T11:04:57.243Z,17.46
2016-04-23T11:05:57.636Z,17.45
2016-04-23T11:06:57.639Z,17.46
2016-04-23T11:07:57.423Z,17.46
2016-04-23T11:08:57.222Z,17.49
2016-04-23T11:09:57.240Z,17.42
2016-04-23T11:10:57.196Z,17.42
2016-04-23T11:11:57.621Z,17.45
2016-04-23T11:12:57.405Z,17.46
2016-04-23T11:13:57.611Z,17.46
2016-04-23T11:14:57.394Z,17.49
2016-04-23T11:15:57.006Z,17.47
2016-04-23T11:17:00.181Z,17.46
2016-04-23T11:17:57.184Z,17.5
2016-04-23T11:18:57.374Z,17.46
2016-04-23T11:19:57.393Z,17.43
2016-04-23T11:20:57.364Z,17.43
2016-04-23T11:21:57.367Z,17.46
2016-04-23T11:22:57.369Z,17.5
2016-04-23T11:23:57.153Z,17.5
2016-04-23T11:24:56.937Z,17.4
2016-04-23T11:25:57.142Z,17.43
2016-04-23T11:26:57.349Z,17.49
2016-04-23T11:27:57.133Z,17.47
2016-04-23T11:28:57.542Z,17.45
2016-04-23T11:29:57.528Z,17.49
2016-04-23T11:30:57.328Z,17.46
2016-04-23T11:31:57.534Z,17.57
2016-04-23T11:32:56.911Z,17.49
2016-04-23T11:33:57.321Z,17.54
2016-04-23T11:34:57.699Z,17.54
2016-04-23T11:35:57.311Z,17.54
2016-04-23T11:36:57.094Z,17.57
2016-04-23T11:37:57.300Z,17.57
2016-04-23T11:38:57.303Z,17.52
2016-04-23T11:39:57.509Z,17.55
2016-04-23T11:40:57.480Z,17.52
2016-04-23T11:41:57.482Z,17.54
2016-04-23T11:42:56.876Z,17.52
2016-04-23T11:43:57.270Z,17.57
2016-04-23T11:44:57.069Z,17.55
2016-04-23T11:45:57.088Z,17.55
2016-04-23T11:46:57.262Z,17.55
2016-04-23T11:47:57.451Z,17.5
2016-04-23T11:48:57.049Z,17.6
2016-04-23T11:49:57.004Z,17.45
2016-04-23T11:50:57.242Z,17.49
2016-04-23T11:51:57.042Z,17.49
2016-04-23T11:52:57.029Z,17.6
2016-04-23T11:53:57.218Z,17.54
2016-04-23T11:54:57.220Z,17.58
2016-04-23T11:55:57.020Z,17.57
2016-04-23T11:56:57.414Z,17.55
2016-04-23T11:57:57.011Z,17.57
2016-04-23T11:58:57.200Z,17.54
2016-04-23T11:59:57.203Z,17.58
2016-04-23T12:00:57.191Z,17.52
2016-04-23T12:01:56.990Z,17.46
2016-04-23T12:02:56.992Z,17.54
2016-04-23T12:03:57.042Z,17.55
2016-04-23T12:04:56.841Z,17.52
2016-04-23T12:05:56.969Z,17.54
2016-04-23T12:06:56.972Z,17.55
2016-04-23T12:07:56.960Z,17.57
2016-04-23T12:08:56.743Z,17.63
2016-04-23T12:09:56.965Z,17.57
2016-04-23T12:10:57.155Z,17.57
2016-04-23T12:11:57.157Z,17.5
2016-04-23T12:12:57.176Z,17.5
2016-04-23T12:13:56.943Z,17.58
2016-04-23T12:14:57.149Z,17.52
2016-04-23T12:15:57.340Z,17.55
2016-04-23T12:16:57.155Z,17.54
2016-04-23T12:17:56.736Z,17.5
2016-04-23T12:18:57.129Z,17.55
2016-04-23T12:19:57.506Z,17.58
2016-04-23T12:20:56.823Z,17.52
2016-04-23T12:21:57.106Z,17.6
2016-04-23T12:22:56.921Z,17.55
2016-04-23T12:23:57.095Z,17.55
2016-04-23T12:24:57.114Z,17.57
2016-04-23T12:25:56.914Z,17.47
2016-04-23T12:26:56.901Z,17.5
2016-04-23T12:27:57.279Z,17.55
2016-04-23T12:28:57.078Z,17.52
2016-04-23T12:29:57.064Z,17.68
2016-04-23T12:30:57.067Z,17.68
2016-04-23T12:31:57.274Z,17.71
2016-04-23T12:32:57.073Z,17.74
2016-04-23T12:33:57.295Z,17.66
2016-04-23T12:34:57.297Z,17.73
2016-04-23T12:35:57.066Z,17.76
2016-04-23T12:36:57.038Z,17.73
2016-04-23T12:37:57.040Z,17.68
2016-04-23T12:38:57.246Z,17.71
2016-04-23T12:39:57.029Z,17.74
2016-04-23T12:40:56.829Z,17.77
2016-04-23T12:41:56.816Z,17.65
2016-04-23T12:42:57.022Z,17.66
2016-04-23T12:43:56.821Z,17.66
2016-04-23T12:44:57.012Z,17.73
2016-04-23T12:45:56.812Z,17.76
2016-04-23T12:46:57.002Z,17.69
2016-04-23T12:47:57.004Z,17.71
2016-04-23T12:48:57.210Z,17.73
2016-04-23T12:49:56.853Z,17.71
2016-04-23T12:50:56.778Z,17.73
2016-04-23T12:51:57.203Z,17.74
2016-04-23T12:52:56.987Z,17.69
2016-04-23T12:53:56.973Z,17.73
2016-04-23T12:54:57.179Z,17.71
2016-04-23T12:55:57.167Z,17.69
2016-04-23T12:56:56.950Z,17.71